sensor_id;sensor_type;location;lat;lon;timestamp;P1;durP1;ratioP1;P2;durP2;ratioP2
1062;SDS011;520;50.932;6.962;2023-12-14T00:02:06;12.83;;;10.23;;
1062;SDS011;520;50.932;6.962;2023-12-14T00:04:36;15.07;;;10.93;;
1062;SDS011;520;50.932;6.962;2023-12-14T00:07:04;12.93;;;10.13;;
1062;SDS011;520;50.932;6.962;2023-12-14T00:09:33;14.77;;;10.70;;
1062;SDS011;520;50.932;6.962;2023-12-14T00:12:00;13.63;;;11.03;;
1062;SDS011;520;50.932;6.962;2023-12-14T00:14:30;14.30;;;10.63;;
1062;SDS011;520;50.932;6.962;2023-12-14T00:17:00;15.27;;;10.73;;
1062;SDS011;520;50.932;6.962;2023-12-14T00:19:28;18.73;;;11.40;;
1062;SDS011;520;50.932;6.962;2023-12-14T00:21:55;15.43;;;12.20;;
1062;SDS011;520;50.932;6.962;2023-12-14T00:24:23;15.87;;;12.80;;
1062;SDS011;520;50.932;6.962;2023-12-14T00:26:52;16.53;;;12.30;;
1062;SDS011;520;50.932;6.962;2023-12-14T00:29:26;14.80;;;11.67;;
1062;SDS011;520;50.932;6.962;2023-12-14T00:31:54;18.53;;;13.63;;
1062;SDS011;520;50.932;6.962;2023-12-14T00:34:23;17.67;;;13.10;;
1062;SDS011;520;50.932;6.962;2023-12-14T00:36:50;22.30;;;13.97;;
1062;SDS011;520;50.932;6.962;2023-12-14T00:39:17;20.90;;;14.67;;
1062;SDS011;520;50.932;6.962;2023-12-14T00:41:45;26.23;;;14.77;;
1062;SDS011;520;50.932;6.962;2023-12-14T00:44:12;24.00;;;15.57;;
1062;SDS011;520;50.932;6.962;2023-12-14T00:46:40;24.73;;;14.00;;
1062;SDS011;520;50.932;6.962;2023-12-14T00:49:08;20.20;;;15.53;;
1062;SDS011;520;50.932;6.962;2023-12-14T00:51:36;22.37;;;14.00;;
1062;SDS011;520;50.932;6.962;2023-12-14T00:54:04;27.30;;;16.57;;
1062;SDS011;520;50.932;6.962;2023-12-14T00:56:34;26.73;;;17.07;;
1062;SDS011;520;50.932;6.962;2023-12-14T00:59:01;24.17;;;16.37;;
1062;SDS011;520;50.932;6.962;2023-12-14T01:01:29;25.10;;;14.97;;
1062;SDS011;520;50.932;6.962;2023-12-14T01:03:59;31.23;;;16.17;;
1062;SDS011;520;50.932;6.962;2023-12-14T01:06:27;30.03;;;16.20;;
1062;SDS011;520;50.932;6.962;2023-12-14T01:08:54;25.93;;;15.60;;
1062;SDS011;520;50.932;6.962;2023-12-14T01:11:24;23.43;;;14.53;;
1062;SDS011;520;50.932;6.962;2023-12-14T01:13:52;28.40;;;16.53;;
1062;SDS011;520;50.932;6.962;2023-12-14T01:16:19;24.53;;;15.70;;
1062;SDS011;520;50.932;6.962;2023-12-14T01:18:46;27.37;;;15.13;;
1062;SDS011;520;50.932;6.962;2023-12-14T01:21:16;24.90;;;15.90;;
1062;SDS011;520;50.932;6.962;2023-12-14T01:23:43;25.50;;;15.47;;
1062;SDS011;520;50.932;6.962;2023-12-14T01:26:11;25.13;;;15.07;;
1062;SDS011;520;50.932;6.962;2023-12-14T01:28:38;20.20;;;14.50;;
1062;SDS011;520;50.932;6.962;2023-12-14T01:31:07;28.57;;;16.30;;
1062;SDS011;520;50.932;6.962;2023-12-14T01:33:35;24.50;;;15.37;;
1062;SDS011;520;50.932;6.962;2023-12-14T01:36:02;25.07;;;14.20;;
1062;SDS011;520;50.932;6.962;2023-12-14T01:38:33;26.50;;;15.80;;
1062;SDS011;520;50.932;6.962;2023-12-14T01:41:02;22.90;;;15.07;;
1062;SDS011;520;50.932;6.962;2023-12-14T01:43:30;30.77;;;16.97;;
1062;SDS011;520;50.932;6.962;2023-12-14T01:45:57;27.90;;;15.27;;
1062;SDS011;520;50.932;6.962;2023-12-14T01:48:24;27.90;;;16.40;;
1062;SDS011;520;50.932;6.962;2023-12-14T01:50:52;26.57;;;16.63;;
1062;SDS011;520;50.932;6.962;2023-12-14T01:53:19;28.90;;;16.60;;
1062;SDS011;520;50.932;6.962;2023-12-14T01:55:50;29.03;;;17.27;;
1062;SDS011;520;50.932;6.962;2023-12-14T01:58:17;27.63;;;18.13;;
1062;SDS011;520;50.932;6.962;2023-12-14T02:03:31;23.37;;;14.33;;
1062;SDS011;520;50.932;6.962;2023-12-14T02:06:01;24.77;;;15.97;;
1062;SDS011;520;50.932;6.962;2023-12-14T02:08:31;24.20;;;15.30;;
1062;SDS011;520;50.932;6.962;2023-12-14T02:10:58;25.60;;;15.90;;
1062;SDS011;520;50.932;6.962;2023-12-14T02:13:25;26.10;;;15.70;;
1062;SDS011;520;50.932;6.962;2023-12-14T02:15:53;28.33;;;16.40;;
1062;SDS011;520;50.932;6.962;2023-12-14T02:18:21;23.47;;;14.70;;
1062;SDS011;520;50.932;6.962;2023-12-14T02:20:51;27.10;;;16.43;;
1062;SDS011;520;50.932;6.962;2023-12-14T02:23:20;22.73;;;15.80;;
1062;SDS011;520;50.932;6.962;2023-12-14T02:25:49;25.27;;;14.43;;
1062;SDS011;520;50.932;6.962;2023-12-14T02:28:19;27.30;;;15.83;;
1062;SDS011;520;50.932;6.962;2023-12-14T02:30:50;25.40;;;16.07;;
1062;SDS011;520;50.932;6.962;2023-12-14T02:33:20;25.10;;;15.77;;
1062;SDS011;520;50.932;6.962;2023-12-14T02:35:55;26.10;;;16.17;;
1062;SDS011;520;50.932;6.962;2023-12-14T02:38:24;28.90;;;16.87;;
1062;SDS011;520;50.932;6.962;2023-12-14T02:40:53;22.23;;;14.00;;
1062;SDS011;520;50.932;6.962;2023-12-14T02:43:22;27.53;;;16.03;;
1062;SDS011;520;50.932;6.962;2023-12-14T02:45:52;25.10;;;15.80;;
1062;SDS011;520;50.932;6.962;2023-12-14T02:48:22;27.03;;;16.10;;
1062;SDS011;520;50.932;6.962;2023-12-14T02:50:50;29.00;;;16.83;;
1062;SDS011;520;50.932;6.962;2023-12-14T02:53:18;27.80;;;17.10;;
1062;SDS011;520;50.932;6.962;2023-12-14T02:55:45;22.00;;;14.53;;
1062;SDS011;520;50.932;6.962;2023-12-14T02:58:14;22.93;;;13.63;;
1062;SDS011;520;50.932;6.962;2023-12-14T03:00:42;21.40;;;13.57;;
1062;SDS011;520;50.932;6.962;2023-12-14T03:03:09;24.03;;;14.07;;
1062;SDS011;520;50.932;6.962;2023-12-14T03:05:36;20.50;;;12.43;;
1062;SDS011;520;50.932;6.962;2023-12-14T03:08:05;23.00;;;13.73;;
1062;SDS011;520;50.932;6.962;2023-12-14T03:10:35;23.00;;;14.20;;
1062;SDS011;520;50.932;6.962;2023-12-14T03:13:02;20.67;;;12.80;;
1062;SDS011;520;50.932;6.962;2023-12-14T03:15:35;24.30;;;15.27;;
1062;SDS011;520;50.932;6.962;2023-12-14T03:18:02;23.17;;;15.47;;
1062;SDS011;520;50.932;6.962;2023-12-14T03:20:30;21.73;;;14.00;;
1062;SDS011;520;50.932;6.962;2023-12-14T03:23:02;22.57;;;14.17;;
1062;SDS011;520;50.932;6.962;2023-12-14T03:25:29;19.43;;;12.87;;
1062;SDS011;520;50.932;6.962;2023-12-14T03:27:59;22.83;;;15.00;;
1062;SDS011;520;50.932;6.962;2023-12-14T03:30:29;23.17;;;13.93;;
1062;SDS011;520;50.932;6.962;2023-12-14T03:33:01;20.50;;;12.37;;
1062;SDS011;520;50.932;6.962;2023-12-14T03:35:28;21.53;;;13.83;;
1062;SDS011;520;50.932;6.962;2023-12-14T03:37:56;20.53;;;11.80;;
1062;SDS011;520;50.932;6.962;2023-12-14T03:40:23;18.50;;;12.73;;
1062;SDS011;520;50.932;6.962;2023-12-14T03:42:52;22.30;;;14.40;;
1062;SDS011;520;50.932;6.962;2023-12-14T03:45:19;21.77;;;14.80;;
1062;SDS011;520;50.932;6.962;2023-12-14T03:47:46;21.33;;;13.77;;
1062;SDS011;520;50.932;6.962;2023-12-14T03:50:14;22.23;;;14.00;;
1062;SDS011;520;50.932;6.962;2023-12-14T03:52:41;23.50;;;14.40;;
1062;SDS011;520;50.932;6.962;2023-12-14T03:55:08;19.17;;;13.60;;
1062;SDS011;520;50.932;6.962;2023-12-14T03:57:36;22.60;;;13.50;;
1062;SDS011;520;50.932;6.962;2023-12-14T04:00:04;18.60;;;13.27;;
1062;SDS011;520;50.932;6.962;2023-12-14T04:02:31;21.60;;;14.40;;
1062;SDS011;520;50.932;6.962;2023-12-14T04:04:59;19.13;;;13.47;;
1062;SDS011;520;50.932;6.962;2023-12-14T04:07:27;18.10;;;12.40;;
1062;SDS011;520;50.932;6.962;2023-12-14T04:09:54;17.70;;;12.60;;
1062;SDS011;520;50.932;6.962;2023-12-14T04:12:21;17.90;;;13.90;;
1062;SDS011;520;50.932;6.962;2023-12-14T04:14:48;15.10;;;11.30;;
1062;SDS011;520;50.932;6.962;2023-12-14T04:17:17;18.13;;;12.57;;
1062;SDS011;520;50.932;6.962;2023-12-14T04:19:44;16.00;;;11.27;;
1062;SDS011;520;50.932;6.962;2023-12-14T04:22:11;18.77;;;12.50;;
1062;SDS011;520;50.932;6.962;2023-12-14T04:24:44;15.87;;;11.67;;
1062;SDS011;520;50.932;6.962;2023-12-14T04:27:12;14.57;;;10.83;;
1062;SDS011;520;50.932;6.962;2023-12-14T04:29:39;14.43;;;11.37;;
1062;SDS011;520;50.932;6.962;2023-12-14T04:32:08;15.13;;;11.20;;
1062;SDS011;520;50.932;6.962;2023-12-14T04:34:38;17.37;;;11.50;;
1062;SDS011;520;50.932;6.962;2023-12-14T04:37:05;16.97;;;11.03;;
1062;SDS011;520;50.932;6.962;2023-12-14T04:39:33;15.53;;;11.20;;
1062;SDS011;520;50.932;6.962;2023-12-14T04:42:02;16.40;;;11.47;;
1062;SDS011;520;50.932;6.962;2023-12-14T04:44:30;19.90;;;12.37;;
1062;SDS011;520;50.932;6.962;2023-12-14T04:47:00;16.83;;;12.17;;
1062;SDS011;520;50.932;6.962;2023-12-14T04:49:30;19.73;;;12.43;;
1062;SDS011;520;50.932;6.962;2023-12-14T04:51:57;20.20;;;12.93;;
1062;SDS011;520;50.932;6.962;2023-12-14T04:54:24;21.27;;;14.53;;
1062;SDS011;520;50.932;6.962;2023-12-14T04:56:52;20.40;;;13.77;;
1062;SDS011;520;50.932;6.962;2023-12-14T04:59:19;23.40;;;14.93;;
1062;SDS011;520;50.932;6.962;2023-12-14T05:01:49;19.67;;;13.47;;
1062;SDS011;520;50.932;6.962;2023-12-14T05:04:17;19.53;;;13.30;;
1062;SDS011;520;50.932;6.962;2023-12-14T05:06:44;20.63;;;13.67;;
1062;SDS011;520;50.932;6.962;2023-12-14T05:09:14;20.70;;;13.83;;
1062;SDS011;520;50.932;6.962;2023-12-14T05:11:41;18.00;;;13.13;;
1062;SDS011;520;50.932;6.962;2023-12-14T05:14:09;18.70;;;13.43;;
1062;SDS011;520;50.932;6.962;2023-12-14T05:16:37;19.60;;;11.73;;
1062;SDS011;520;50.932;6.962;2023-12-14T05:19:05;20.67;;;14.73;;
1062;SDS011;520;50.932;6.962;2023-12-14T05:21:32;20.03;;;13.93;;
1062;SDS011;520;50.932;6.962;2023-12-14T05:24:00;23.53;;;13.80;;
1062;SDS011;520;50.932;6.962;2023-12-14T05:26:27;24.70;;;14.50;;
1062;SDS011;520;50.932;6.962;2023-12-14T05:28:56;22.83;;;13.70;;
1062;SDS011;520;50.932;6.962;2023-12-14T05:31:23;21.70;;;14.17;;
1062;SDS011;520;50.932;6.962;2023-12-14T05:33:50;22.33;;;14.23;;
1062;SDS011;520;50.932;6.962;2023-12-14T05:36:17;21.53;;;14.50;;
1062;SDS011;520;50.932;6.962;2023-12-14T05:38:45;22.27;;;14.80;;
1062;SDS011;520;50.932;6.962;2023-12-14T05:41:13;21.17;;;14.07;;
1062;SDS011;520;50.932;6.962;2023-12-14T05:43:40;21.83;;;13.60;;
1062;SDS011;520;50.932;6.962;2023-12-14T05:46:07;19.57;;;13.30;;
1062;SDS011;520;50.932;6.962;2023-12-14T05:48:35;19.80;;;12.53;;
1062;SDS011;520;50.932;6.962;2023-12-14T05:51:05;20.87;;;14.10;;
1062;SDS011;520;50.932;6.962;2023-12-14T05:53:35;19.27;;;12.70;;
1062;SDS011;520;50.932;6.962;2023-12-14T05:56:09;17.60;;;11.23;;
1062;SDS011;520;50.932;6.962;2023-12-14T05:58:36;27.17;;;15.83;;
1062;SDS011;520;50.932;6.962;2023-12-14T06:01:03;19.00;;;11.93;;
1062;SDS011;520;50.932;6.962;2023-12-14T06:03:32;21.40;;;12.77;;
1062;SDS011;520;50.932;6.962;2023-12-14T06:06:00;19.23;;;11.13;;
1062;SDS011;520;50.932;6.962;2023-12-14T06:08:28;20.43;;;12.57;;
1062;SDS011;520;50.932;6.962;2023-12-14T06:11:05;20.10;;;11.70;;
1062;SDS011;520;50.932;6.962;2023-12-14T06:13:36;21.60;;;13.53;;
1062;SDS011;520;50.932;6.962;2023-12-14T06:16:04;23.33;;;12.90;;
1062;SDS011;520;50.932;6.962;2023-12-14T06:18:33;21.07;;;12.73;;
1062;SDS011;520;50.932;6.962;2023-12-14T06:21:00;23.47;;;13.67;;
1062;SDS011;520;50.932;6.962;2023-12-14T06:23:28;21.33;;;12.77;;
1062;SDS011;520;50.932;6.962;2023-12-14T06:25:58;23.40;;;13.73;;
1062;SDS011;520;50.932;6.962;2023-12-14T06:28:26;26.27;;;14.43;;
1062;SDS011;520;50.932;6.962;2023-12-14T06:30:53;25.27;;;14.90;;
1062;SDS011;520;50.932;6.962;2023-12-14T06:33:20;22.40;;;13.90;;
1062;SDS011;520;50.932;6.962;2023-12-14T06:35:51;25.37;;;14.00;;
1062;SDS011;520;50.932;6.962;2023-12-14T06:38:19;23.83;;;13.57;;
1062;SDS011;520;50.932;6.962;2023-12-14T06:40:47;25.63;;;15.63;;
1062;SDS011;520;50.932;6.962;2023-12-14T06:43:19;22.23;;;13.00;;
1062;SDS011;520;50.932;6.962;2023-12-14T06:46:31;26.10;;;14.93;;
1062;SDS011;520;50.932;6.962;2023-12-14T06:49:17;25.90;;;15.90;;
1062;SDS011;520;50.932;6.962;2023-12-14T06:51:47;23.70;;;14.30;;
1062;SDS011;520;50.932;6.962;2023-12-14T06:54:14;25.03;;;14.37;;
1062;SDS011;520;50.932;6.962;2023-12-14T06:56:41;24.47;;;15.70;;
1062;SDS011;520;50.932;6.962;2023-12-14T06:59:09;29.03;;;15.30;;
1062;SDS011;520;50.932;6.962;2023-12-14T07:01:38;23.07;;;14.50;;
1062;SDS011;520;50.932;6.962;2023-12-14T07:04:08;31.73;;;18.53;;
1062;SDS011;520;50.932;6.962;2023-12-14T07:06:36;30.60;;;17.00;;
1062;SDS011;520;50.932;6.962;2023-12-14T07:09:04;31.30;;;17.80;;
1062;SDS011;520;50.932;6.962;2023-12-14T07:11:31;33.33;;;18.30;;
1062;SDS011;520;50.932;6.962;2023-12-14T07:13:59;33.73;;;19.13;;
1062;SDS011;520;50.932;6.962;2023-12-14T07:16:26;29.33;;;16.03;;
1062;SDS011;520;50.932;6.962;2023-12-14T07:18:53;35.47;;;18.70;;
1062;SDS011;520;50.932;6.962;2023-12-14T07:21:21;29.00;;;17.77;;
1062;SDS011;520;50.932;6.962;2023-12-14T07:23:48;32.63;;;18.57;;
1062;SDS011;520;50.932;6.962;2023-12-14T07:26:16;31.90;;;18.23;;
1062;SDS011;520;50.932;6.962;2023-12-14T07:28:44;33.40;;;17.17;;
1062;SDS011;520;50.932;6.962;2023-12-14T07:31:11;33.70;;;19.07;;
1062;SDS011;520;50.932;6.962;2023-12-14T07:33:39;37.57;;;19.10;;
1062;SDS011;520;50.932;6.962;2023-12-14T07:36:06;33.50;;;17.80;;
1062;SDS011;520;50.932;6.962;2023-12-14T07:38:34;33.47;;;17.50;;
1062;SDS011;520;50.932;6.962;2023-12-14T07:41:04;38.70;;;17.17;;
1062;SDS011;520;50.932;6.962;2023-12-14T07:43:31;31.10;;;16.80;;
1062;SDS011;520;50.932;6.962;2023-12-14T07:46:01;35.00;;;17.63;;
1062;SDS011;520;50.932;6.962;2023-12-14T07:48:28;29.97;;;15.33;;
1062;SDS011;520;50.932;6.962;2023-12-14T07:50:55;27.73;;;15.90;;
1062;SDS011;520;50.932;6.962;2023-12-14T07:53:23;31.20;;;17.40;;
1062;SDS011;520;50.932;6.962;2023-12-14T07:55:51;31.20;;;17.83;;
1062;SDS011;520;50.932;6.962;2023-12-14T07:58:18;29.83;;;16.10;;
1062;SDS011;520;50.932;6.962;2023-12-14T08:00:45;30.90;;;16.40;;
1062;SDS011;520;50.932;6.962;2023-12-14T08:03:12;28.83;;;16.43;;
1062;SDS011;520;50.932;6.962;2023-12-14T08:05:40;25.80;;;14.47;;
1062;SDS011;520;50.932;6.962;2023-12-14T08:08:07;24.20;;;14.67;;
1062;SDS011;520;50.932;6.962;2023-12-14T08:10:37;30.43;;;16.10;;
1062;SDS011;520;50.932;6.962;2023-12-14T08:13:04;26.23;;;14.13;;
1062;SDS011;520;50.932;6.962;2023-12-14T08:15:31;23.23;;;13.13;;
1062;SDS011;520;50.932;6.962;2023-12-14T08:18:00;20.27;;;11.60;;
1062;SDS011;520;50.932;6.962;2023-12-14T08:20:28;19.93;;;12.33;;
1062;SDS011;520;50.932;6.962;2023-12-14T08:22:55;19.47;;;10.97;;
1062;SDS011;520;50.932;6.962;2023-12-14T08:25:23;19.53;;;12.47;;
1062;SDS011;520;50.932;6.962;2023-12-14T08:27:50;19.20;;;11.30;;
1062;SDS011;520;50.932;6.962;2023-12-14T08:30:17;17.47;;;10.83;;
1062;SDS011;520;50.932;6.962;2023-12-14T08:32:46;17.63;;;10.23;;
1062;SDS011;520;50.932;6.962;2023-12-14T08:35:13;17.47;;;11.07;;
1062;SDS011;520;50.932;6.962;2023-12-14T08:37:41;16.17;;;9.90;;
1062;SDS011;520;50.932;6.962;2023-12-14T08:40:10;18.73;;;10.20;;
1062;SDS011;520;50.932;6.962;2023-12-14T08:42:38;18.23;;;9.60;;
1062;SDS011;520;50.932;6.962;2023-12-14T08:45:05;16.50;;;10.37;;
1062;SDS011;520;50.932;6.962;2023-12-14T08:47:36;16.40;;;9.90;;
1062;SDS011;520;50.932;6.962;2023-12-14T08:50:04;14.03;;;9.53;;
1062;SDS011;520;50.932;6.962;2023-12-14T08:52:32;13.00;;;9.03;;
1062;SDS011;520;50.932;6.962;2023-12-14T08:55:00;14.50;;;9.60;;
1062;SDS011;520;50.932;6.962;2023-12-14T08:57:28;14.30;;;8.47;;
1062;SDS011;520;50.932;6.962;2023-12-14T08:59:55;14.47;;;9.57;;
1062;SDS011;520;50.932;6.962;2023-12-14T09:02:23;16.43;;;9.10;;
1062;SDS011;520;50.932;6.962;2023-12-14T09:04:50;17.23;;;10.23;;
1062;SDS011;520;50.932;6.962;2023-12-14T09:07:20;15.97;;;9.70;;
1062;SDS011;520;50.932;6.962;2023-12-14T09:09:47;15.03;;;9.43;;
1062;SDS011;520;50.932;6.962;2023-12-14T09:12:14;14.53;;;10.17;;
1062;SDS011;520;50.932;6.962;2023-12-14T09:14:42;16.00;;;9.80;;
1062;SDS011;520;50.932;6.962;2023-12-14T09:17:09;15.20;;;9.87;;
1062;SDS011;520;50.932;6.962;2023-12-14T09:19:37;18.10;;;10.10;;
1062;SDS011;520;50.932;6.962;2023-12-14T09:22:04;18.30;;;10.73;;
1062;SDS011;520;50.932;6.962;2023-12-14T09:24:32;19.03;;;11.47;;
1062;SDS011;520;50.932;6.962;2023-12-14T09:27:01;18.60;;;12.23;;
1062;SDS011;520;50.932;6.962;2023-12-14T09:29:29;15.20;;;10.73;;
1062;SDS011;520;50.932;6.962;2023-12-14T09:32:01;19.60;;;11.47;;
1062;SDS011;520;50.932;6.962;2023-12-14T09:34:28;19.70;;;11.40;;
1062;SDS011;520;50.932;6.962;2023-12-14T09:36:56;22.23;;;12.50;;
1062;SDS011;520;50.932;6.962;2023-12-14T09:39:25;23.67;;;13.20;;
1062;SDS011;520;50.932;6.962;2023-12-14T09:42:01;19.97;;;12.40;;
1062;SDS011;520;50.932;6.962;2023-12-14T09:44:30;19.40;;;11.67;;
1062;SDS011;520;50.932;6.962;2023-12-14T09:47:00;19.07;;;11.10;;
1062;SDS011;520;50.932;6.962;2023-12-14T09:49:31;28.43;;;18.53;;
1062;SDS011;520;50.932;6.962;2023-12-14T09:52:02;20.13;;;11.87;;
1062;SDS011;520;50.932;6.962;2023-12-14T09:54:29;18.17;;;11.50;;
1062;SDS011;520;50.932;6.962;2023-12-14T09:56:56;19.50;;;11.20;;
1062;SDS011;520;50.932;6.962;2023-12-14T09:59:24;17.90;;;11.40;;
1062;SDS011;520;50.932;6.962;2023-12-14T10:02:16;20.93;;;11.27;;
1062;SDS011;520;50.932;6.962;2023-12-14T10:05:09;21.40;;;12.23;;
1062;SDS011;520;50.932;6.962;2023-12-14T10:07:43;18.60;;;10.97;;
1062;SDS011;520;50.932;6.962;2023-12-14T10:10:13;16.47;;;10.17;;
1062;SDS011;520;50.932;6.962;2023-12-14T10:12:53;17.50;;;10.70;;
1062;SDS011;520;50.932;6.962;2023-12-14T10:15:20;21.23;;;11.93;;
1062;SDS011;520;50.932;6.962;2023-12-14T10:17:51;19.03;;;12.43;;
1062;SDS011;520;50.932;6.962;2023-12-14T10:20:20;21.33;;;13.27;;
1062;SDS011;520;50.932;6.962;2023-12-14T10:22:48;19.57;;;11.63;;
1062;SDS011;520;50.932;6.962;2023-12-14T10:25:19;23.33;;;12.77;;
1062;SDS011;520;50.932;6.962;2023-12-14T10:27:47;21.50;;;12.80;;
1062;SDS011;520;50.932;6.962;2023-12-14T10:30:15;18.47;;;11.47;;
1062;SDS011;520;50.932;6.962;2023-12-14T10:32:49;17.83;;;12.17;;
1062;SDS011;520;50.932;6.962;2023-12-14T10:35:16;18.83;;;11.53;;
1062;SDS011;520;50.932;6.962;2023-12-14T10:37:45;21.83;;;11.53;;
1062;SDS011;520;50.932;6.962;2023-12-14T10:40:13;19.27;;;11.20;;
1062;SDS011;520;50.932;6.962;2023-12-14T10:42:42;20.30;;;12.00;;
1062;SDS011;520;50.932;6.962;2023-12-14T10:45:13;22.30;;;13.97;;
1062;SDS011;520;50.932;6.962;2023-12-14T10:47:44;24.30;;;14.60;;
1062;SDS011;520;50.932;6.962;2023-12-14T10:50:13;23.80;;;14.13;;
1062;SDS011;520;50.932;6.962;2023-12-14T10:52:41;25.80;;;15.70;;
1062;SDS011;520;50.932;6.962;2023-12-14T10:55:15;23.90;;;14.70;;
1062;SDS011;520;50.932;6.962;2023-12-14T10:57:45;26.70;;;16.30;;
1062;SDS011;520;50.932;6.962;2023-12-14T11:00:13;30.93;;;15.00;;
1062;SDS011;520;50.932;6.962;2023-12-14T11:02:44;25.87;;;15.27;;
1062;SDS011;520;50.932;6.962;2023-12-14T11:05:15;29.70;;;15.73;;
1062;SDS011;520;50.932;6.962;2023-12-14T11:07:55;22.77;;;15.00;;
1062;SDS011;520;50.932;6.962;2023-12-14T11:10:28;21.10;;;13.77;;
1062;SDS011;520;50.932;6.962;2023-12-14T11:13:01;24.03;;;14.90;;
1062;SDS011;520;50.932;6.962;2023-12-14T11:15:29;21.90;;;13.87;;
1062;SDS011;520;50.932;6.962;2023-12-14T11:23:13;23.07;;;14.00;;
1062;SDS011;520;50.932;6.962;2023-12-14T11:25:41;19.53;;;13.17;;
1062;SDS011;520;50.932;6.962;2023-12-14T11:28:10;21.53;;;13.47;;
1062;SDS011;520;50.932;6.962;2023-12-14T11:30:39;20.50;;;13.03;;
1062;SDS011;520;50.932;6.962;2023-12-14T11:33:13;18.57;;;12.60;;
1062;SDS011;520;50.932;6.962;2023-12-14T11:35:41;20.00;;;13.00;;
1062;SDS011;520;50.932;6.962;2023-12-14T11:38:09;26.00;;;13.20;;
1062;SDS011;520;50.932;6.962;2023-12-14T11:40:39;19.43;;;12.90;;
1062;SDS011;520;50.932;6.962;2023-12-14T11:43:07;20.17;;;13.43;;
1062;SDS011;520;50.932;6.962;2023-12-14T11:45:38;17.17;;;12.70;;
1062;SDS011;520;50.932;6.962;2023-12-14T11:48:09;20.37;;;13.27;;
1062;SDS011;520;50.932;6.962;2023-12-14T11:50:40;20.63;;;12.07;;
1062;SDS011;520;50.932;6.962;2023-12-14T11:53:09;18.50;;;12.50;;
1062;SDS011;520;50.932;6.962;2023-12-14T11:55:38;17.27;;;11.60;;
1062;SDS011;520;50.932;6.962;2023-12-14T11:58:07;22.40;;;13.70;;
1062;SDS011;520;50.932;6.962;2023-12-14T12:00:37;17.63;;;11.80;;
1062;SDS011;520;50.932;6.962;2023-12-14T12:03:11;18.10;;;12.10;;
1062;SDS011;520;50.932;6.962;2023-12-14T12:05:45;17.90;;;12.27;;
1062;SDS011;520;50.932;6.962;2023-12-14T12:08:13;19.87;;;12.13;;
1062;SDS011;520;50.932;6.962;2023-12-14T12:10:41;15.90;;;11.17;;
1062;SDS011;520;50.932;6.962;2023-12-14T12:13:12;17.13;;;11.30;;
1062;SDS011;520;50.932;6.962;2023-12-14T12:15:39;21.03;;;12.53;;
1062;SDS011;520;50.932;6.962;2023-12-14T12:18:10;22.17;;;13.10;;
1062;SDS011;520;50.932;6.962;2023-12-14T12:20:40;21.00;;;11.60;;
1062;SDS011;520;50.932;6.962;2023-12-14T12:23:07;21.63;;;13.30;;
1062;SDS011;520;50.932;6.962;2023-12-14T12:25:35;15.60;;;10.80;;
1062;SDS011;520;50.932;6.962;2023-12-14T12:28:03;19.70;;;12.07;;
1062;SDS011;520;50.932;6.962;2023-12-14T12:30:31;18.93;;;13.00;;
1062;SDS011;520;50.932;6.962;2023-12-14T12:33:03;18.87;;;12.90;;
1062;SDS011;520;50.932;6.962;2023-12-14T12:35:31;16.90;;;11.20;;
1062;SDS011;520;50.932;6.962;2023-12-14T12:37:59;18.97;;;12.30;;
1062;SDS011;520;50.932;6.962;2023-12-14T12:40:28;15.77;;;10.70;;
1062;SDS011;520;50.932;6.962;2023-12-14T12:42:57;17.50;;;11.40;;
1062;SDS011;520;50.932;6.962;2023-12-14T12:45:24;19.40;;;11.53;;
1062;SDS011;520;50.932;6.962;2023-12-14T12:47:54;15.67;;;10.17;;
1062;SDS011;520;50.932;6.962;2023-12-14T12:50:24;14.50;;;10.63;;
1062;SDS011;520;50.932;6.962;2023-12-14T12:52:54;15.70;;;10.60;;
1062;SDS011;520;50.932;6.962;2023-12-14T12:55:21;13.70;;;9.47;;
1062;SDS011;520;50.932;6.962;2023-12-14T12:57:49;16.73;;;10.00;;
1062;SDS011;520;50.932;6.962;2023-12-14T13:00:17;15.80;;;10.80;;
1062;SDS011;520;50.932;6.962;2023-12-14T13:02:46;15.50;;;11.13;;
1062;SDS011;520;50.932;6.962;2023-12-14T13:05:13;16.63;;;11.00;;
1062;SDS011;520;50.932;6.962;2023-12-14T13:07:46;14.93;;;9.90;;
1062;SDS011;520;50.932;6.962;2023-12-14T13:10:14;15.87;;;8.90;;
1062;SDS011;520;50.932;6.962;2023-12-14T13:12:50;14.77;;;10.40;;
1062;SDS011;520;50.932;6.962;2023-12-14T13:15:17;15.00;;;9.03;;
1062;SDS011;520;50.932;6.962;2023-12-14T13:17:55;13.00;;;8.50;;
1062;SDS011;520;50.932;6.962;2023-12-14T13:20:24;12.20;;;9.00;;
1062;SDS011;520;50.932;6.962;2023-12-14T13:22:53;12.20;;;9.00;;
1062;SDS011;520;50.932;6.962;2023-12-14T13:25:24;11.23;;;8.17;;
1062;SDS011;520;50.932;6.962;2023-12-14T13:27:55;12.43;;;8.67;;
1062;SDS011;520;50.932;6.962;2023-12-14T13:30:23;12.93;;;8.90;;
1062;SDS011;520;50.932;6.962;2023-12-14T13:32:51;10.60;;;8.23;;
1062;SDS011;520;50.932;6.962;2023-12-14T13:35:20;11.80;;;8.00;;
1062;SDS011;520;50.932;6.962;2023-12-14T13:37:50;12.43;;;8.93;;
1062;SDS011;520;50.932;6.962;2023-12-14T13:40:18;11.97;;;9.23;;
1062;SDS011;520;50.932;6.962;2023-12-14T13:42:47;13.10;;;8.50;;
1062;SDS011;520;50.932;6.962;2023-12-14T13:45:24;11.07;;;8.10;;
1062;SDS011;520;50.932;6.962;2023-12-14T13:47:52;11.83;;;8.20;;
1062;SDS011;520;50.932;6.962;2023-12-14T13:50:19;10.80;;;8.40;;
1062;SDS011;520;50.932;6.962;2023-12-14T13:52:48;11.67;;;7.97;;
1062;SDS011;520;50.932;6.962;2023-12-14T13:55:15;10.67;;;7.80;;
1062;SDS011;520;50.932;6.962;2023-12-14T13:57:48;13.77;;;8.67;;
1062;SDS011;520;50.932;6.962;2023-12-14T14:00:15;12.40;;;8.17;;
1062;SDS011;520;50.932;6.962;2023-12-14T14:02:43;12.10;;;8.83;;
1062;SDS011;520;50.932;6.962;2023-12-14T14:05:15;9.67;;;7.13;;
1062;SDS011;520;50.932;6.962;2023-12-14T14:07:43;11.57;;;7.93;;
1062;SDS011;520;50.932;6.962;2023-12-14T14:10:14;10.70;;;7.53;;
1062;SDS011;520;50.932;6.962;2023-12-14T14:12:41;10.63;;;7.60;;
1062;SDS011;520;50.932;6.962;2023-12-14T14:15:10;21.80;;;12.40;;
1062;SDS011;520;50.932;6.962;2023-12-14T14:17:38;12.00;;;7.70;;
1062;SDS011;520;50.932;6.962;2023-12-14T14:20:07;13.10;;;7.47;;
1062;SDS011;520;50.932;6.962;2023-12-14T14:22:42;7.77;;;6.87;;
1062;SDS011;520;50.932;6.962;2023-12-14T14:25:11;9.17;;;6.50;;
1062;SDS011;520;50.932;6.962;2023-12-14T14:27:39;9.77;;;6.90;;
1062;SDS011;520;50.932;6.962;2023-12-14T14:30:07;13.10;;;7.10;;
1062;SDS011;520;50.932;6.962;2023-12-14T14:32:35;10.40;;;7.63;;
1062;SDS011;520;50.932;6.962;2023-12-14T14:35:10;10.33;;;6.57;;
1062;SDS011;520;50.932;6.962;2023-12-14T14:37:38;8.50;;;6.03;;
1062;SDS011;520;50.932;6.962;2023-12-14T14:40:07;9.03;;;6.23;;
1062;SDS011;520;50.932;6.962;2023-12-14T14:42:37;8.50;;;6.10;;
1062;SDS011;520;50.932;6.962;2023-12-14T14:45:07;7.40;;;5.63;;
1062;SDS011;520;50.932;6.962;2023-12-14T14:47:39;8.20;;;6.80;;
1062;SDS011;520;50.932;6.962;2023-12-14T14:50:08;10.23;;;5.60;;
1062;SDS011;520;50.932;6.962;2023-12-14T14:52:38;9.20;;;5.83;;
1062;SDS011;520;50.932;6.962;2023-12-14T14:55:06;7.77;;;5.63;;
1062;SDS011;520;50.932;6.962;2023-12-14T14:57:35;8.73;;;5.00;;
1062;SDS011;520;50.932;6.962;2023-12-14T15:00:03;5.23;;;4.13;;
1062;SDS011;520;50.932;6.962;2023-12-14T15:02:34;8.80;;;5.90;;
1062;SDS011;520;50.932;6.962;2023-12-14T15:05:05;5.60;;;4.70;;
1062;SDS011;520;50.932;6.962;2023-12-14T15:07:33;6.70;;;5.40;;
1062;SDS011;520;50.932;6.962;2023-12-14T15:10:01;9.87;;;6.60;;
1062;SDS011;520;50.932;6.962;2023-12-14T15:12:33;8.80;;;6.20;;
1062;SDS011;520;50.932;6.962;2023-12-14T15:15:03;6.37;;;5.23;;
1062;SDS011;520;50.932;6.962;2023-12-14T15:17:33;7.30;;;6.20;;
1062;SDS011;520;50.932;6.962;2023-12-14T15:20:01;10.20;;;6.77;;
1062;SDS011;520;50.932;6.962;2023-12-14T15:22:31;8.53;;;6.20;;
1062;SDS011;520;50.932;6.962;2023-12-14T15:25:04;6.77;;;5.10;;